Briefing drone pour Saint-cernin

Rechercher une autre localisation

Conditions de vol :


Nous sommes le : Jeudi 08 juin 2023
Il est 22:59 UTC (00:59 LT)

Lever de soleil : 03:37 UTC (05:37 LT)
Coucher de soleil : 20:00 UTC (22:00 LT)

Météo

L'essentiel des conditions de vol

VIGILANCE MÉTÉO FRANCE - Cantal (15)
Pas de vigilances particulieres
CARTE TEMSI
CARTES DES FRONTS
METAR de LFLW
LFLW 072230Z AUTO 09007KT CAVOK 14/12 Q1016

Date d'émission: 07/06/2023
Heure d'émission: 22:30 UTC
Vent: 090° pour 7 KT (13 km/h)
Visibilité horizontale: > 10 km
Plafond : Plafond et visibilité OK (CAVOK)
Température: 14 °C
Point de rosée: 12 °C
Humidité: 88%
Pression (QNH): 1016 hPa
Prévision 24h pour Aurillac (9 km)
Vent : 147° pour 3 KT (9 km/h)
Temperature Maxi: 20 °C
Temperature Min: 20 °C
Humidité : 62%
Condition : Couvert


WEBCAM POUR SAINT-CERNIN

Réglementation

Voler en sécurité

CARTES AERONAUTIQUE 1/500.000
CARTE AZBA (Reseau basse altitude)
CARTES VAC (LFLW)
SUP AIP




Chargement des AIP...
NOTAM (SAINT-CERNIN + Terrain à proximité / FIR )




Chargement des NOTAMS...
CONTACT PREFECTURE 15
Cantal (15) : [email protected]


Avertissement : Les données mises à disposition sont indicatives. Oxygène Drone ne pourra être tenu responsable de dégâts causés aux biens et aux personnes.